sensor_id;sensor_type;location;lat;lon;timestamp;temperature;humidity
65637;DHT22;52327;42.622;23.316;2022-12-29T00:01:37;4.65;81.30
65637;DHT22;52327;42.622;23.316;2022-12-29T00:04:04;4.72;81.13
65637;DHT22;52327;42.622;23.316;2022-12-29T00:06:30;4.82;81.08
65637;DHT22;52327;42.622;23.316;2022-12-29T00:08:56;4.85;80.01
65637;DHT22;52327;42.622;23.316;2022-12-29T00:11:26;4.84;80.30
65637;DHT22;52327;42.622;23.316;2022-12-29T00:13:54;4.81;80.92
65637;DHT22;52327;42.622;23.316;2022-12-29T00:16:41;4.72;80.91
65637;DHT22;52327;42.622;23.316;2022-12-29T00:19:06;4.75;80.50
65637;DHT22;52327;42.622;23.316;2022-12-29T00:21:52;4.68;80.93
65637;DHT22;52327;42.622;23.316;2022-12-29T00:24:36;4.60;80.16
65637;DHT22;52327;42.622;23.316;2022-12-29T00:27:20;4.64;80.43
65637;DHT22;52327;42.622;23.316;2022-12-29T00:30:18;4.53;81.20
65637;DHT22;52327;42.622;23.316;2022-12-29T00:33:10;4.61;80.15
65637;DHT22;52327;42.622;23.316;2022-12-29T00:36:00;4.44;81.43
65637;DHT22;52327;42.622;23.316;2022-12-29T00:38:28;4.46;81.26
65637;DHT22;52327;42.622;23.316;2022-12-29T00:41:13;4.50;80.49
65637;DHT22;52327;42.622;23.316;2022-12-29T00:43:57;4.51;80.41
65637;DHT22;52327;42.622;23.316;2022-12-29T00:46:38;4.54;80.27
65637;DHT22;52327;42.622;23.316;2022-12-29T00:49:05;4.61;79.49
65637;DHT22;52327;42.622;23.316;2022-12-29T00:51:50;4.37;80.57
65637;DHT22;52327;42.622;23.316;2022-12-29T00:54:16;4.41;80.26
65637;DHT22;52327;42.622;23.316;2022-12-29T00:56:42;4.27;80.89
65637;DHT22;52327;42.622;23.316;2022-12-29T00:59:10;4.29;81.44
65637;DHT22;52327;42.622;23.316;2022-12-29T01:01:37;4.23;81.18
65637;DHT22;52327;42.622;23.316;2022-12-29T01:04:08;4.26;80.90
65637;DHT22;52327;42.622;23.316;2022-12-29T01:06:35;4.18;80.62
65637;DHT22;52327;42.622;23.316;2022-12-29T01:09:02;4.32;80.38
65637;DHT22;52327;42.622;23.316;2022-12-29T01:11:46;4.26;81.00
65637;DHT22;52327;42.622;23.316;2022-12-29T01:14:11;4.16;81.75
65637;DHT22;52327;42.622;23.316;2022-12-29T01:16:37;4.23;81.53
65637;DHT22;52327;42.622;23.316;2022-12-29T01:19:03;4.11;82.14
65637;DHT22;52327;42.622;23.316;2022-12-29T01:21:29;3.90;82.82
65637;DHT22;52327;42.622;23.316;2022-12-29T01:23:54;3.87;82.93
65637;DHT22;52327;42.622;23.316;2022-12-29T01:26:20;3.93;82.37
65637;DHT22;52327;42.622;23.316;2022-12-29T01:28:46;4.00;81.69
65637;DHT22;52327;42.622;23.316;2022-12-29T01:31:13;3.90;82.57
65637;DHT22;52327;42.622;23.316;2022-12-29T01:33:39;4.06;81.76
65637;DHT22;52327;42.622;23.316;2022-12-29T01:36:07;4.03;82.13
65637;DHT22;52327;42.622;23.316;2022-12-29T01:38:35;3.86;82.96
65637;DHT22;52327;42.622;23.316;2022-12-29T01:41:00;3.85;83.24
65637;DHT22;52327;42.622;23.316;2022-12-29T01:46:04;4.06;83.70
65637;DHT22;52327;42.622;23.316;2022-12-29T01:48:32;4.09;83.41
65637;DHT22;52327;42.622;23.316;2022-12-29T01:50:57;4.26;83.25
65637;DHT22;52327;42.622;23.316;2022-12-29T01:53:27;4.27;82.93
65637;DHT22;52327;42.622;23.316;2022-12-29T01:56:00;4.38;82.63
65637;DHT22;52327;42.622;23.316;2022-12-29T01:58:29;4.37;82.06
65637;DHT22;52327;42.622;23.316;2022-12-29T02:00:56;4.46;82.33
65637;DHT22;52327;42.622;23.316;2022-12-29T02:03:23;4.47;82.02
65637;DHT22;52327;42.622;23.316;2022-12-29T02:08:29;4.41;81.38
65637;DHT22;52327;42.622;23.316;2022-12-29T02:10:59;4.38;81.85
65637;DHT22;52327;42.622;23.316;2022-12-29T02:13:26;4.48;81.72
65637;DHT22;52327;42.622;23.316;2022-12-29T02:16:09;4.61;81.80
65637;DHT22;52327;42.622;23.316;2022-12-29T02:30:16;4.75;82.04
65637;DHT22;52327;42.622;23.316;2022-12-29T02:32:52;4.81;81.84
65637;DHT22;52327;42.622;23.316;2022-12-29T02:40:53;4.84;81.62
65637;DHT22;52327;42.622;23.316;2022-12-29T02:43:33;4.78;81.76
65637;DHT22;52327;42.622;23.316;2022-12-29T02:46:15;4.91;80.73
65637;DHT22;52327;42.622;23.316;2022-12-29T02:48:46;4.92;80.85
65637;DHT22;52327;42.622;23.316;2022-12-29T02:51:20;4.85;81.14
65637;DHT22;52327;42.622;23.316;2022-12-29T02:53:46;4.82;81.48
65637;DHT22;52327;42.622;23.316;2022-12-29T02:56:31;4.78;81.81
65637;DHT22;52327;42.622;23.316;2022-12-29T02:58:56;4.64;82.12
65637;DHT22;52327;42.622;23.316;2022-12-29T03:10:35;4.62;82.87
65637;DHT22;52327;42.622;23.316;2022-12-29T03:16:45;4.69;82.59
65637;DHT22;52327;42.622;23.316;2022-12-29T03:19:23;4.62;82.73
65637;DHT22;52327;42.622;23.316;2022-12-29T03:22:03;4.54;82.89
65637;DHT22;52327;42.622;23.316;2022-12-29T03:24:52;4.32;83.54
65637;DHT22;52327;42.622;23.316;2022-12-29T03:27:22;4.32;83.35
65637;DHT22;52327;42.622;23.316;2022-12-29T03:29:54;4.21;83.84
65637;DHT22;52327;42.622;23.316;2022-12-29T03:32:23;4.11;83.88
65637;DHT22;52327;42.622;23.316;2022-12-29T03:34:50;4.03;84.36
65637;DHT22;52327;42.622;23.316;2022-12-29T03:37:20;3.95;84.53
65637;DHT22;52327;42.622;23.316;2022-12-29T03:39:46;3.83;84.62
65637;DHT22;52327;42.622;23.316;2022-12-29T03:42:18;3.75;84.10
65637;DHT22;52327;42.622;23.316;2022-12-29T03:44:45;3.65;84.85
65637;DHT22;52327;42.622;23.316;2022-12-29T03:47:12;3.59;84.56
65637;DHT22;52327;42.622;23.316;2022-12-29T03:49:38;3.50;84.42
65637;DHT22;52327;42.622;23.316;2022-12-29T03:52:04;3.42;84.64
65637;DHT22;52327;42.622;23.316;2022-12-29T03:54:31;3.34;85.09
65637;DHT22;52327;42.622;23.316;2022-12-29T03:56:56;3.35;83.93
65637;DHT22;52327;42.622;23.316;2022-12-29T03:59:22;3.31;83.57
65637;DHT22;52327;42.622;23.316;2022-12-29T04:01:47;3.25;83.21
65637;DHT22;52327;42.622;23.316;2022-12-29T04:04:13;3.05;84.31
65637;DHT22;52327;42.622;23.316;2022-12-29T04:06:38;2.94;85.29
65637;DHT22;52327;42.622;23.316;2022-12-29T04:09:03;2.91;86.13
65637;DHT22;52327;42.622;23.316;2022-12-29T04:11:29;2.91;85.47
65637;DHT22;52327;42.622;23.316;2022-12-29T04:13:54;2.84;85.40
65637;DHT22;52327;42.622;23.316;2022-12-29T04:16:20;2.80;85.54
65637;DHT22;52327;42.622;23.316;2022-12-29T04:18:45;2.80;85.55
65637;DHT22;52327;42.622;23.316;2022-12-29T04:21:11;2.72;85.11
65637;DHT22;52327;42.622;23.316;2022-12-29T04:23:37;2.75;85.90
65637;DHT22;52327;42.622;23.316;2022-12-29T04:26:04;2.90;85.09
65637;DHT22;52327;42.622;23.316;2022-12-29T04:28:32;3.01;84.98
65637;DHT22;52327;42.622;23.316;2022-12-29T04:30:57;2.99;84.71
65637;DHT22;52327;42.622;23.316;2022-12-29T04:33:23;2.94;85.26
65637;DHT22;52327;42.622;23.316;2022-12-29T04:35:49;3.05;85.12
65637;DHT22;52327;42.622;23.316;2022-12-29T04:38:15;3.11;84.48
65637;DHT22;52327;42.622;23.316;2022-12-29T04:40:42;3.27;84.37
65637;DHT22;52327;42.622;23.316;2022-12-29T04:43:08;3.38;83.32
65637;DHT22;52327;42.622;23.316;2022-12-29T04:45:33;3.39;83.46
65637;DHT22;52327;42.622;23.316;2022-12-29T04:47:59;3.44;84.03
65637;DHT22;52327;42.622;23.316;2022-12-29T04:50:24;3.55;84.23
65637;DHT22;52327;42.622;23.316;2022-12-29T04:52:50;3.64;83.38
65637;DHT22;52327;42.622;23.316;2022-12-29T04:55:15;3.75;82.40
65637;DHT22;52327;42.622;23.316;2022-12-29T04:57:41;3.79;83.35
65637;DHT22;52327;42.622;23.316;2022-12-29T05:00:07;3.89;83.10
65637;DHT22;52327;42.622;23.316;2022-12-29T05:02:34;3.72;83.70
65637;DHT22;52327;42.622;23.316;2022-12-29T05:04:59;3.83;83.43
65637;DHT22;52327;42.622;23.316;2022-12-29T05:07:25;3.86;83.46
65637;DHT22;52327;42.622;23.316;2022-12-29T05:09:53;3.87;82.92
65637;DHT22;52327;42.622;23.316;2022-12-29T05:12:19;3.96;83.15
65637;DHT22;52327;42.622;23.316;2022-12-29T05:14:44;3.97;83.60
65637;DHT22;52327;42.622;23.316;2022-12-29T05:20:31;4.24;82.56
65637;DHT22;52327;42.622;23.316;2022-12-29T05:22:57;4.29;82.71
65637;DHT22;52327;42.622;23.316;2022-12-29T05:25:22;4.43;81.62
65637;DHT22;52327;42.622;23.316;2022-12-29T05:27:47;4.43;81.46
65637;DHT22;52327;42.622;23.316;2022-12-29T05:30:13;4.32;81.61
65637;DHT22;52327;42.622;23.316;2022-12-29T05:32:38;4.13;82.43
65637;DHT22;52327;42.622;23.316;2022-12-29T05:35:04;4.06;83.27
65637;DHT22;52327;42.622;23.316;2022-12-29T05:37:30;4.18;83.20
65637;DHT22;52327;42.622;23.316;2022-12-29T05:39:55;4.29;82.47
65637;DHT22;52327;42.622;23.316;2022-12-29T05:42:20;4.29;82.89
65637;DHT22;52327;42.622;23.316;2022-12-29T05:44:46;4.21;82.58
65637;DHT22;52327;42.622;23.316;2022-12-29T05:47:11;4.24;82.70
65637;DHT22;52327;42.622;23.316;2022-12-29T05:49:37;4.33;83.15
65637;DHT22;52327;42.622;23.316;2022-12-29T05:55:11;4.44;83.03
65637;DHT22;52327;42.622;23.316;2022-12-29T05:57:37;4.51;82.86
65637;DHT22;52327;42.622;23.316;2022-12-29T06:00:05;4.61;82.53
65637;DHT22;52327;42.622;23.316;2022-12-29T06:02:30;4.64;82.33
65637;DHT22;52327;42.622;23.316;2022-12-29T06:04:56;4.60;81.92
65637;DHT22;52327;42.622;23.316;2022-12-29T06:07:21;4.62;82.40
65637;DHT22;52327;42.622;23.316;2022-12-29T06:09:46;4.69;82.24
65637;DHT22;52327;42.622;23.316;2022-12-29T06:12:12;4.81;82.05
65637;DHT22;52327;42.622;23.316;2022-12-29T06:14:37;4.91;81.41
65637;DHT22;52327;42.622;23.316;2022-12-29T06:17:03;4.92;81.66
65637;DHT22;52327;42.622;23.316;2022-12-29T06:19:28;4.95;81.62
65637;DHT22;52327;42.622;23.316;2022-12-29T06:21:53;5.02;81.69
65637;DHT22;52327;42.622;23.316;2022-12-29T06:24:20;5.09;81.55
65637;DHT22;52327;42.622;23.316;2022-12-29T06:26:45;5.18;81.01
65637;DHT22;52327;42.622;23.316;2022-12-29T06:29:11;5.20;81.39
65637;DHT22;52327;42.622;23.316;2022-12-29T06:31:38;5.29;80.96
65637;DHT22;52327;42.622;23.316;2022-12-29T06:34:05;5.32;80.60
65637;DHT22;52327;42.622;23.316;2022-12-29T06:36:31;5.36;80.71
65637;DHT22;52327;42.622;23.316;2022-12-29T06:38:56;5.47;80.49
65637;DHT22;52327;42.622;23.316;2022-12-29T06:41:22;5.66;79.19
65637;DHT22;52327;42.622;23.316;2022-12-29T06:43:47;5.35;79.47
65637;DHT22;52327;42.622;23.316;2022-12-29T06:46:13;5.19;80.30
65637;DHT22;52327;42.622;23.316;2022-12-29T06:48:38;5.15;80.89
65637;DHT22;52327;42.622;23.316;2022-12-29T06:51:04;5.20;80.73
65637;DHT22;52327;42.622;23.316;2022-12-29T06:53:29;5.36;80.85
65637;DHT22;52327;42.622;23.316;2022-12-29T06:55:54;5.51;80.08
65637;DHT22;52327;42.622;23.316;2022-12-29T06:58:21;5.60;79.95
65637;DHT22;52327;42.622;23.316;2022-12-29T07:00:47;5.75;79.83
65637;DHT22;52327;42.622;23.316;2022-12-29T07:03:13;5.73;79.21
65637;DHT22;52327;42.622;23.316;2022-12-29T07:05:38;5.78;79.19
65637;DHT22;52327;42.622;23.316;2022-12-29T07:08:04;5.84;79.27
65637;DHT22;52327;42.622;23.316;2022-12-29T07:26:37;5.91;79.23
65637;DHT22;52327;42.622;23.316;2022-12-29T07:29:03;6.04;79.16
65637;DHT22;52327;42.622;23.316;2022-12-29T07:31:29;6.05;78.84
65637;DHT22;52327;42.622;23.316;2022-12-29T07:33:55;6.07;78.43
65637;DHT22;52327;42.622;23.316;2022-12-29T07:36:20;5.98;78.36
65637;DHT22;52327;42.622;23.316;2022-12-29T07:38:46;5.90;78.29
65637;DHT22;52327;42.622;23.316;2022-12-29T07:41:11;6.02;78.52
65637;DHT22;52327;42.622;23.316;2022-12-29T07:43:37;6.17;77.90
65637;DHT22;52327;42.622;23.316;2022-12-29T07:46:02;6.33;77.42
65637;DHT22;52327;42.622;23.316;2022-12-29T07:48:28;6.38;77.97
65637;DHT22;52327;42.622;23.316;2022-12-29T07:50:53;6.46;77.67
65637;DHT22;52327;42.622;23.316;2022-12-29T07:53:19;6.46;76.66
65637;DHT22;52327;42.622;23.316;2022-12-29T07:55:45;6.46;76.96
65637;DHT22;52327;42.622;23.316;2022-12-29T07:58:10;6.63;76.10
65637;DHT22;52327;42.622;23.316;2022-12-29T08:00:36;6.61;76.40
65637;DHT22;52327;42.622;23.316;2022-12-29T08:03:03;6.31;76.50
65637;DHT22;52327;42.622;23.316;2022-12-29T08:05:30;6.14;77.49
65637;DHT22;52327;42.622;23.316;2022-12-29T08:07:56;6.28;77.23
65637;DHT22;52327;42.622;23.316;2022-12-29T08:10:22;6.36;77.46
65637;DHT22;52327;42.622;23.316;2022-12-29T08:12:47;6.10;77.28
65637;DHT22;52327;42.622;23.316;2022-12-29T08:15:12;6.11;78.21
65637;DHT22;52327;42.622;23.316;2022-12-29T08:17:38;6.08;77.69
65637;DHT22;52327;42.622;23.316;2022-12-29T08:20:04;6.07;78.55
65637;DHT22;52327;42.622;23.316;2022-12-29T08:22:29;5.98;78.25
65637;DHT22;52327;42.622;23.316;2022-12-29T08:24:55;5.97;77.83
65637;DHT22;52327;42.622;23.316;2022-12-29T08:27:20;5.83;78.87
65637;DHT22;52327;42.622;23.316;2022-12-29T08:29:46;6.00;78.61
65637;DHT22;52327;42.622;23.316;2022-12-29T08:32:12;5.98;78.32
65637;DHT22;52327;42.622;23.316;2022-12-29T08:34:37;5.90;78.44
65637;DHT22;52327;42.622;23.316;2022-12-29T08:37:03;5.91;78.96
65637;DHT22;52327;42.622;23.316;2022-12-29T08:39:31;5.97;78.53
65637;DHT22;52327;42.622;23.316;2022-12-29T08:41:56;5.94;78.79
65637;DHT22;52327;42.622;23.316;2022-12-29T08:44:30;6.00;78.07
65637;DHT22;52327;42.622;23.316;2022-12-29T08:46:55;6.07;77.91
65637;DHT22;52327;42.622;23.316;2022-12-29T08:49:21;6.05;77.62
65637;DHT22;52327;42.622;23.316;2022-12-29T08:51:47;6.17;77.40
65637;DHT22;52327;42.622;23.316;2022-12-29T08:54:12;6.25;77.26
65637;DHT22;52327;42.622;23.316;2022-12-29T08:56:38;6.11;77.67
65637;DHT22;52327;42.622;23.316;2022-12-29T08:59:03;6.11;77.02
65637;DHT22;52327;42.622;23.316;2022-12-29T09:01:28;6.14;77.56
65637;DHT22;52327;42.622;23.316;2022-12-29T09:03:55;6.21;77.33
65637;DHT22;52327;42.622;23.316;2022-12-29T09:06:21;6.32;77.11
65637;DHT22;52327;42.622;23.316;2022-12-29T09:08:46;6.29;77.08
65637;DHT22;52327;42.622;23.316;2022-12-29T09:11:21;6.24;77.21
65637;DHT22;52327;42.622;23.316;2022-12-29T09:13:47;6.28;76.53
65637;DHT22;52327;42.622;23.316;2022-12-29T09:16:14;6.10;77.02
65637;DHT22;52327;42.622;23.316;2022-12-29T09:18:41;5.98;77.78
65637;DHT22;52327;42.622;23.316;2022-12-29T09:21:06;6.01;77.70
65637;DHT22;52327;42.622;23.316;2022-12-29T09:23:33;6.04;77.66
65637;DHT22;52327;42.622;23.316;2022-12-29T09:25:59;6.31;77.20
65637;DHT22;52327;42.622;23.316;2022-12-29T09:28:25;6.35;76.73
65637;DHT22;52327;42.622;23.316;2022-12-29T09:30:51;6.31;76.54
65637;DHT22;52327;42.622;23.316;2022-12-29T09:33:17;6.32;76.80
65637;DHT22;52327;42.622;23.316;2022-12-29T09:35:43;6.46;76.67
65637;DHT22;52327;42.622;23.316;2022-12-29T09:38:09;6.61;75.64
65637;DHT22;52327;42.622;23.316;2022-12-29T09:40:35;6.52;76.42
65637;DHT22;52327;42.622;23.316;2022-12-29T09:45:49;6.50;75.79
65637;DHT22;52327;42.622;23.316;2022-12-29T09:48:31;6.65;76.40
65637;DHT22;52327;42.622;23.316;2022-12-29T09:51:02;6.52;75.58
65637;DHT22;52327;42.622;23.316;2022-12-29T09:53:41;6.42;76.49
65637;DHT22;52327;42.622;23.316;2022-12-29T09:56:21;6.57;76.28
65637;DHT22;52327;42.622;23.316;2022-12-29T09:59:00;6.77;75.86
65637;DHT22;52327;42.622;23.316;2022-12-29T10:01:30;6.96;75.59
65637;DHT22;52327;42.622;23.316;2022-12-29T10:04:00;7.15;74.34
65637;DHT22;52327;42.622;23.316;2022-12-29T10:13:01;7.44;73.36
65637;DHT22;52327;42.622;23.316;2022-12-29T10:23:52;7.50;73.00
65637;DHT22;52327;42.622;23.316;2022-12-29T10:26:21;7.31;73.09
65637;DHT22;52327;42.622;23.316;2022-12-29T10:28:52;7.38;73.67
65637;DHT22;52327;42.622;23.316;2022-12-29T10:31:25;7.52;73.31
65637;DHT22;52327;42.622;23.316;2022-12-29T10:33:57;7.83;72.39
65637;DHT22;52327;42.622;23.316;2022-12-29T10:36:39;7.90;71.92
65637;DHT22;52327;42.622;23.316;2022-12-29T10:39:21;8.07;71.42
65637;DHT22;52327;42.622;23.316;2022-12-29T10:44:47;8.16;71.83
65637;DHT22;52327;42.622;23.316;2022-12-29T10:47:19;8.23;71.67
65637;DHT22;52327;42.622;23.316;2022-12-29T10:49:47;8.19;71.99
65637;DHT22;52327;42.622;23.316;2022-12-29T10:52:16;8.26;71.15
65637;DHT22;52327;42.622;23.316;2022-12-29T10:55:44;8.29;71.63
65637;DHT22;52327;42.622;23.316;2022-12-29T10:58:11;8.10;71.03
65637;DHT22;52327;42.622;23.316;2022-12-29T11:00:37;7.96;70.99
65637;DHT22;52327;42.622;23.316;2022-12-29T11:05:49;7.89;71.89
65637;DHT22;52327;42.622;23.316;2022-12-29T11:08:20;8.16;71.37
65637;DHT22;52327;42.622;23.316;2022-12-29T11:11:00;8.40;70.18
65637;DHT22;52327;42.622;23.316;2022-12-29T11:13:31;8.48;70.11
65637;DHT22;52327;42.622;23.316;2022-12-29T11:15:56;8.51;69.85
65637;DHT22;52327;42.622;23.316;2022-12-29T11:18:26;8.60;69.50
65637;DHT22;52327;42.622;23.316;2022-12-29T11:20:55;8.60;70.28
65637;DHT22;52327;42.622;23.316;2022-12-29T11:23:26;8.58;69.90
65637;DHT22;52327;42.622;23.316;2022-12-29T11:28:39;8.56;69.77
65637;DHT22;52327;42.622;23.316;2022-12-29T11:31:06;8.56;69.87
65637;DHT22;52327;42.622;23.316;2022-12-29T11:33:34;8.63;70.03
65637;DHT22;52327;42.622;23.316;2022-12-29T11:36:22;8.75;69.74
65637;DHT22;52327;42.622;23.316;2022-12-29T11:38:53;8.79;69.33
65637;DHT22;52327;42.622;23.316;2022-12-29T11:41:23;8.68;69.65
65637;DHT22;52327;42.622;23.316;2022-12-29T11:43:49;8.74;69.25
65637;DHT22;52327;42.622;23.316;2022-12-29T11:46:17;8.72;68.96
65637;DHT22;52327;42.622;23.316;2022-12-29T11:48:43;8.81;69.56
65637;DHT22;52327;42.622;23.316;2022-12-29T11:51:11;8.95;68.72
65637;DHT22;52327;42.622;23.316;2022-12-29T11:53:43;9.11;68.02
65637;DHT22;52327;42.622;23.316;2022-12-29T11:56:14;9.11;67.35
65637;DHT22;52327;42.622;23.316;2022-12-29T11:58:40;9.15;67.98
65637;DHT22;52327;42.622;23.316;2022-12-29T12:04:07;9.23;67.49
65637;DHT22;52327;42.622;23.316;2022-12-29T12:06:49;9.11;67.47
65637;DHT22;52327;42.622;23.316;2022-12-29T12:12:06;9.11;67.44
65637;DHT22;52327;42.622;23.316;2022-12-29T12:14:43;9.01;67.67
65637;DHT22;52327;42.622;23.316;2022-12-29T12:17:19;9.04;68.59
65637;DHT22;52327;42.622;23.316;2022-12-29T12:19:57;9.14;68.64
65637;DHT22;52327;42.622;23.316;2022-12-29T12:22:37;9.35;66.97
65637;DHT22;52327;42.622;23.316;2022-12-29T12:25:04;9.42;67.10
65637;DHT22;52327;42.622;23.316;2022-12-29T12:27:51;9.52;66.53
65637;DHT22;52327;42.622;23.316;2022-12-29T12:30:24;9.53;68.09
65637;DHT22;52327;42.622;23.316;2022-12-29T12:35:40;9.47;66.80
65637;DHT22;52327;42.622;23.316;2022-12-29T12:43:51;9.28;67.42
65637;DHT22;52327;42.622;23.316;2022-12-29T12:55:30;9.12;69.54
65637;DHT22;52327;42.622;23.316;2022-12-29T12:58:15;8.81;70.40
65637;DHT22;52327;42.622;23.316;2022-12-29T13:12:03;8.44;72.21
65637;DHT22;52327;42.622;23.316;2022-12-29T13:30:40;7.61;75.40
65637;DHT22;52327;42.622;23.316;2022-12-29T13:35:57;7.45;75.40
65637;DHT22;52327;42.622;23.316;2022-12-29T13:41:00;7.40;75.82
65637;DHT22;52327;42.622;23.316;2022-12-29T13:43:29;7.35;75.19
65637;DHT22;52327;42.622;23.316;2022-12-29T13:46:01;7.18;75.84
65637;DHT22;52327;42.622;23.316;2022-12-29T13:48:43;7.35;75.28
65637;DHT22;52327;42.622;23.316;2022-12-29T13:51:10;7.58;73.60
65637;DHT22;52327;42.622;23.316;2022-12-29T13:56:46;8.00;71.67
65637;DHT22;52327;42.622;23.316;2022-12-29T13:59:36;8.25;70.94
65637;DHT22;52327;42.622;23.316;2022-12-29T14:04:57;8.22;72.36
65637;DHT22;52327;42.622;23.316;2022-12-29T14:07:23;8.09;72.45
65637;DHT22;52327;42.622;23.316;2022-12-29T14:09:50;8.02;72.86
65637;DHT22;52327;42.622;23.316;2022-12-29T14:15:06;7.89;73.44
65637;DHT22;52327;42.622;23.316;2022-12-29T14:17:40;7.66;73.08
65637;DHT22;52327;42.622;23.316;2022-12-29T14:20:19;7.27;74.61
65637;DHT22;52327;42.622;23.316;2022-12-29T14:26:00;7.13;74.95
65637;DHT22;52327;42.622;23.316;2022-12-29T14:28:31;7.07;75.42
65637;DHT22;52327;42.622;23.316;2022-12-29T14:30:59;7.24;74.70
65637;DHT22;52327;42.622;23.316;2022-12-29T14:33:27;7.01;74.96
65637;DHT22;52327;42.622;23.316;2022-12-29T14:35:54;6.84;75.43
65637;DHT22;52327;42.622;23.316;2022-12-29T14:38:25;6.84;75.82
65637;DHT22;52327;42.622;23.316;2022-12-29T14:40:52;6.94;75.91
65637;DHT22;52327;42.622;23.316;2022-12-29T14:43:24;6.86;75.62
65637;DHT22;52327;42.622;23.316;2022-12-29T14:45:59;6.93;75.43
65637;DHT22;52327;42.622;23.316;2022-12-29T14:50:57;6.73;75.59
65637;DHT22;52327;42.622;23.316;2022-12-29T14:53:49;6.62;77.14
65637;DHT22;52327;42.622;23.316;2022-12-29T14:56:17;6.66;76.02
65637;DHT22;52327;42.622;23.316;2022-12-29T15:01:39;6.52;76.60
65637;DHT22;52327;42.622;23.316;2022-12-29T15:04:25;6.45;76.27
65637;DHT22;52327;42.622;23.316;2022-12-29T15:06:52;6.39;77.22
65637;DHT22;52327;42.622;23.316;2022-12-29T15:09:31;6.25;77.74
65637;DHT22;52327;42.622;23.316;2022-12-29T15:12:29;6.05;77.74
65637;DHT22;52327;42.622;23.316;2022-12-29T15:15:00;5.93;78.58
65637;DHT22;52327;42.622;23.316;2022-12-29T15:17:31;5.88;78.78
65637;DHT22;52327;42.622;23.316;2022-12-29T15:20:00;6.00;77.80
65637;DHT22;52327;42.622;23.316;2022-12-29T15:22:26;6.02;77.33
65637;DHT22;52327;42.622;23.316;2022-12-29T15:24:54;6.00;76.80
65637;DHT22;52327;42.622;23.316;2022-12-29T15:27:22;5.91;78.29
65637;DHT22;52327;42.622;23.316;2022-12-29T15:29:55;5.67;78.51
65637;DHT22;52327;42.622;23.316;2022-12-29T15:32:23;5.77;77.60
65637;DHT22;52327;42.622;23.316;2022-12-29T15:34:55;5.77;78.17
65637;DHT22;52327;42.622;23.316;2022-12-29T15:37:27;5.51;78.06
65637;DHT22;52327;42.622;23.316;2022-12-29T15:39:54;5.56;78.98
65637;DHT22;52327;42.622;23.316;2022-12-29T15:42:40;5.59;77.93
65637;DHT22;52327;42.622;23.316;2022-12-29T15:45:12;5.61;78.05
65637;DHT22;52327;42.622;23.316;2022-12-29T15:47:40;5.80;78.39
65637;DHT22;52327;42.622;23.316;2022-12-29T15:50:34;5.95;77.03
65637;DHT22;52327;42.622;23.316;2022-12-29T15:53:01;6.00;76.97
65637;DHT22;52327;42.622;23.316;2022-12-29T15:55:34;6.00;76.93
65637;DHT22;52327;42.622;23.316;2022-12-29T15:58:04;5.83;77.66
65637;DHT22;52327;42.622;23.316;2022-12-29T16:00:32;6.14;76.83
65637;DHT22;52327;42.622;23.316;2022-12-29T16:03:03;6.26;76.28
65637;DHT22;52327;42.622;23.316;2022-12-29T16:05:38;6.05;76.44
65637;DHT22;52327;42.622;23.316;2022-12-29T16:08:23;5.98;77.23
65637;DHT22;52327;42.622;23.316;2022-12-29T16:10:49;5.88;77.46
65637;DHT22;52327;42.622;23.316;2022-12-29T16:13:26;6.00;78.06
65637;DHT22;52327;42.622;23.316;2022-12-29T16:15:56;5.97;78.28
65637;DHT22;52327;42.622;23.316;2022-12-29T16:18:33;5.87;78.56
65637;DHT22;52327;42.622;23.316;2022-12-29T16:21:00;5.93;78.11
65637;DHT22;52327;42.622;23.316;2022-12-29T16:23:28;6.05;77.13
65637;DHT22;52327;42.622;23.316;2022-12-29T16:25:55;6.20;76.41
65637;DHT22;52327;42.622;23.316;2022-12-29T16:28:36;6.05;77.59
65637;DHT22;52327;42.622;23.316;2022-12-29T16:31:05;5.93;77.83
65637;DHT22;52327;42.622;23.316;2022-12-29T16:33:43;5.69;78.53
65637;DHT22;52327;42.622;23.316;2022-12-29T16:36:32;5.63;78.66
65637;DHT22;52327;42.622;23.316;2022-12-29T16:39:17;5.64;79.06
65637;DHT22;52327;42.622;23.316;2022-12-29T16:41:46;5.59;79.47
65637;DHT22;52327;42.622;23.316;2022-12-29T16:44:23;5.53;79.74
65637;DHT22;52327;42.622;23.316;2022-12-29T16:47:18;5.44;80.21
65637;DHT22;52327;42.622;23.316;2022-12-29T16:49:49;5.53;79.75
65637;DHT22;52327;42.622;23.316;2022-12-29T16:52:25;5.59;79.14
65637;DHT22;52327;42.622;23.316;2022-12-29T16:54:56;5.38;79.76
65637;DHT22;52327;42.622;23.316;2022-12-29T16:57:28;5.39;79.91
65637;DHT22;52327;42.622;23.316;2022-12-29T16:59:57;5.56;79.70
65637;DHT22;52327;42.622;23.316;2022-12-29T17:02:25;5.60;78.93
65637;DHT22;52327;42.622;23.316;2022-12-29T17:04:52;5.60;78.65
65637;DHT22;52327;42.622;23.316;2022-12-29T17:07:23;5.50;79.43
65637;DHT22;52327;42.622;23.316;2022-12-29T17:09:49;5.64;79.43
65637;DHT22;52327;42.622;23.316;2022-12-29T17:12:27;5.57;79.39
65637;DHT22;52327;42.622;23.316;2022-12-29T17:15:19;5.46;79.60
65637;DHT22;52327;42.622;23.316;2022-12-29T17:17:42;5.49;80.03
65637;DHT22;52327;42.622;23.316;2022-12-29T17:20:24;5.54;80.21
65637;DHT22;52327;42.622;23.316;2022-12-29T17:22:50;5.47;80.25
65637;DHT22;52327;42.622;23.316;2022-12-29T17:25:21;5.47;79.91
65637;DHT22;52327;42.622;23.316;2022-12-29T17:27:55;5.47;79.98
65637;DHT22;52327;42.622;23.316;2022-12-29T17:30:22;5.32;80.74
65637;DHT22;52327;42.622;23.316;2022-12-29T17:32:52;5.36;80.75
65637;DHT22;52327;42.622;23.316;2022-12-29T17:35:20;5.32;81.14
65637;DHT22;52327;42.622;23.316;2022-12-29T17:37:45;5.38;80.91
65637;DHT22;52327;42.622;23.316;2022-12-29T17:40:23;5.42;80.56
65637;DHT22;52327;42.622;23.316;2022-12-29T17:42:53;5.66;79.40
65637;DHT22;52327;42.622;23.316;2022-12-29T17:45:25;5.81;79.00
65637;DHT22;52327;42.622;23.316;2022-12-29T17:47:51;5.88;78.68
65637;DHT22;52327;42.622;23.316;2022-12-29T17:50:24;5.81;79.43
65637;DHT22;52327;42.622;23.316;2022-12-29T17:52:55;5.80;79.16
65637;DHT22;52327;42.622;23.316;2022-12-29T17:55:24;5.75;78.99
65637;DHT22;52327;42.622;23.316;2022-12-29T17:57:51;5.84;78.72
65637;DHT22;52327;42.622;23.316;2022-12-29T18:00:19;5.77;78.85
65637;DHT22;52327;42.622;23.316;2022-12-29T18:02:45;5.64;79.58
65637;DHT22;52327;42.622;23.316;2022-12-29T18:05:22;5.64;79.54
65637;DHT22;52327;42.622;23.316;2022-12-29T18:08:03;5.64;79.87
65637;DHT22;52327;42.622;23.316;2022-12-29T18:10:29;5.98;78.42
65637;DHT22;52327;42.622;23.316;2022-12-29T18:12:58;5.90;78.72
65637;DHT22;52327;42.622;23.316;2022-12-29T18:15:29;5.74;79.52
65637;DHT22;52327;42.622;23.316;2022-12-29T18:20:31;5.91;78.70
65637;DHT22;52327;42.622;23.316;2022-12-29T18:22:56;5.94;79.17
65637;DHT22;52327;42.622;23.316;2022-12-29T18:28:10;6.22;78.67
65637;DHT22;52327;42.622;23.316;2022-12-29T18:30:36;6.42;77.49